Keosauqua, Iowa
Current Conditions -  °F | °C
As of 12:55 PM on Saturday 25 Oct 2014 (Local Time) from KFFL Reporting Station
Clear Clear  
Wind Chill: 70°   Ceiling: Unl
Heat Index: 70°   Visibility: NA
Dew Point: 39°   Wind: 9mph
Humidity: 33%   Direction: 340°NNW
Pressure: 30.07"   Gusts: NA
Location:  40.73°N, 91.96°W
Report Text: KFFL 251755Z AUTO 34008KT 320V020 CLR 21/04 A3007 RMK AO2
Loading
Personal Weather Stations






























Interactive Weather Map
Tropical Storm Tracking
New forecast layout! Learn more

10-Day Weather Forecast

Advertisements
Track Severe Weather on mobile